Time;durP1;ratioP1;P1;durP2;ratioP2;P2;SDS_P1;SDS_P2;PMS_P1;PMS_P2;Temp;Humidity;BMP_temperature;BMP_pressure;BME280_temperature;BME280_humidity;BME280_pressure;Samples;Min_cycle;Max_cycle;Signal;HPM_P1;HPM_P2
2023/09/11 00:01:58;;;;;;;68.97;11.47;;;17.00;1.00;;;;;;4964821;28;20425;-82
2023/09/11 00:04:23;;;;;;;65.23;11.50;;;17.00;1.00;;;;;;4947779;29;20860;-81
2023/09/11 00:06:49;;;;;;;60.73;10.90;;;17.10;1.00;;;;;;4957711;29;20190;-81
2023/09/11 00:09:15;;;;;;;64.80;11.97;;;17.00;1.00;;;;;;4948977;29;20195;-81
2023/09/11 00:11:41;;;;;;;69.13;12.23;;;17.00;1.00;;;;;;4950301;29;20261;-82
2023/09/11 00:14:07;;;;;;;76.93;12.73;;;17.00;1.00;;;;;;4956770;29;20335;-81
2023/09/11 00:16:32;;;;;;;70.33;11.80;;;17.00;1.00;;;;;;4955157;29;20204;-81
2023/09/11 00:18:58;;;;;;;79.00;13.43;;;16.90;1.00;;;;;;4955641;28;20190;-80
2023/09/11 00:21:23;;;;;;;65.63;12.33;;;16.90;1.00;;;;;;4957077;29;20189;-80
2023/09/11 00:23:49;;;;;;;72.20;13.27;;;16.90;1.00;;;;;;4956116;29;20206;-80
2023/09/11 00:26:15;;;;;;;63.13;12.93;;;17.00;1.00;;;;;;4947177;28;20188;-79
2023/09/11 00:28:41;;;;;;;60.00;12.00;;;;;;;;;;4956786;29;20368;-79
2023/09/11 00:31:07;;;;;;;65.30;11.43;;;16.90;1.00;;;;;;4950428;28;20553;-79
2023/09/11 00:33:33;;;;;;;73.83;12.70;;;16.90;1.00;;;;;;4949469;29;20424;-79
2023/09/11 00:35:58;;;;;;;70.80;11.97;;;16.90;1.00;;;;;;4940944;29;20217;-81
2023/09/11 00:38:24;;;;;;;60.70;12.20;;;16.80;1.00;;;;;;4946124;29;20190;-81
2023/09/11 00:40:49;;;;;;;74.33;13.67;;;16.80;1.00;;;;;;4947862;28;20194;-81
2023/09/11 00:43:21;;;;;;;74.60;13.33;;;16.80;1.00;;;;;;4953048;29;20258;-81
2023/09/11 00:46:15;;;;;;;74.97;12.27;;;16.80;1.00;;;;;;4952359;28;20550;-81
2023/09/11 00:48:45;;;;;;;70.47;12.67;;;16.80;1.00;;;;;;4944534;29;20399;-83
2023/09/11 00:51:38;;;;;;;69.63;13.23;;;16.80;1.00;;;;;;4957235;28;20444;-83
2023/09/11 00:54:15;;;;;;;72.90;13.67;;;16.70;1.00;;;;;;4957379;28;20521;-81
2023/09/11 00:57:03;;;;;;;69.57;13.37;;;16.70;1.00;;;;;;4942697;29;20412;-81
2023/09/11 01:00:14;;;;;;;75.23;12.33;;;16.70;1.00;;;;;;4949014;29;20436;-81
2023/09/11 01:02:46;;;;;;;65.90;12.60;;;16.70;1.00;;;;;;4955697;29;20420;-81
2023/09/11 01:05:11;;;;;;;78.80;13.40;;;16.70;1.00;;;;;;4955622;29;20415;-80
2023/09/11 01:07:51;;;;;;;83.77;13.57;;;16.70;1.00;;;;;;4942958;29;20429;-79
2023/09/11 01:10:27;;;;;;;73.83;13.10;;;16.60;1.00;;;;;;4955825;29;20189;-79
2023/09/11 01:12:57;;;;;;;73.00;12.80;;;16.60;1.00;;;;;;4956709;28;20515;-79
2023/09/11 01:15:47;;;;;;;66.37;14.27;;;16.60;1.00;;;;;;4955138;29;20444;-79
2023/09/11 01:18:39;;;;;;;66.90;13.27;;;16.70;1.00;;;;;;4956592;29;20498;-79
2023/09/11 01:25:13;;;;;;;75.43;13.40;;;16.50;1.00;;;;;;4945892;29;20933;-79
2023/09/11 01:28:26;;;;;;;66.80;13.07;;;16.50;1.00;;;;;;4897540;29;20422;-79
2023/09/11 01:30:54;;;;;;;70.30;13.47;;;16.50;1.00;;;;;;4912206;29;20432;-79
2023/09/11 01:33:21;;;;;;;68.90;12.23;;;16.50;1.00;;;;;;4915815;29;20549;-80
2023/09/11 01:36:08;;;;;;;73.53;15.13;;;16.40;1.00;;;;;;4916417;29;21026;-80
2023/09/11 01:38:51;;;;;;;70.83;12.40;;;16.40;1.00;;;;;;4913451;29;20488;-79
2023/09/11 01:41:40;;;;;;;64.60;14.10;;;16.40;1.00;;;;;;4911712;29;20413;-79
2023/09/11 01:44:14;;;;;;;74.37;13.50;;;16.40;1.00;;;;;;4912213;29;21012;-79
2023/09/11 01:47:03;;;;;;;72.73;12.90;;;16.40;1.00;;;;;;4911389;29;20773;-79
2023/09/11 01:49:47;;;;;;;66.93;13.27;;;16.40;1.00;;;;;;4916642;29;20508;-80
2023/09/11 01:52:21;;;;;;;78.30;13.83;;;16.40;1.00;;;;;;4915831;29;20479;-81
2023/09/11 01:55:03;;;;;;;74.33;13.30;;;16.40;1.00;;;;;;4898766;29;20445;-81
2023/09/11 01:57:33;;;;;;;77.00;14.70;;;16.30;1.00;;;;;;4914868;29;20412;-81
2023/09/11 02:00:09;;;;;;;70.37;14.33;;;16.30;1.00;;;;;;4915937;29;20420;-81
2023/09/11 02:02:39;;;;;;;71.53;13.80;;;16.30;1.00;;;;;;4909771;29;20480;-81
2023/09/11 02:05:26;;;;;;;65.83;14.73;;;16.30;1.00;;;;;;4934045;29;20527;-80
2023/09/11 02:07:57;;;;;;;68.87;14.07;;;16.30;1.00;;;;;;4954317;29;20506;-79
2023/09/11 02:10:39;;;;;;;67.30;14.77;;;16.20;1.00;;;;;;4956121;29;20793;-79
2023/09/11 02:13:15;;;;;;;76.30;14.80;;;16.20;1.00;;;;;;4944580;29;20548;-79
2023/09/11 02:16:08;;;;;;;63.73;13.90;;;16.30;1.00;;;;;;4955666;29;20402;-79
2023/09/11 02:18:39;;;;;;;72.00;13.97;;;16.20;1.00;;;;;;4954227;29;20510;-79
2023/09/11 02:28:08;;;;;;;73.93;14.40;;;16.20;1.00;;;;;;4955370;29;20533;-81
2023/09/11 02:34:20;;;;;;;70.53;15.40;;;16.10;1.00;;;;;;4954271;29;20447;-81
2023/09/11 02:36:51;;;;;;;72.53;15.20;;;16.00;2.40;;;;;;4953090;29;20548;-79
2023/09/11 02:39:21;;;;;;;71.77;15.23;;;16.00;3.10;;;;;;4955319;29;20885;-79
2023/09/11 02:41:51;;;;;;;78.07;15.10;;;16.00;3.30;;;;;;4954994;28;20874;-80
2023/09/11 02:44:38;;;;;;;69.67;14.73;;;16.00;2.60;;;;;;4955123;29;20490;-79
2023/09/11 02:47:26;;;;;;;66.10;14.70;;;16.00;2.80;;;;;;4966607;28;20455;-79
2023/09/11 02:49:52;;;;;;;65.70;15.40;;;16.00;2.20;;;;;;4954406;28;20426;-79
2023/09/11 02:52:27;;;;;;;69.37;15.70;;;16.00;2.10;;;;;;4956357;28;20435;-81
2023/09/11 02:54:57;;;;;;;68.03;15.70;;;;;;;;;;4955315;28;20718;-81
2023/09/11 02:57:33;;;;;;;70.93;14.20;;;15.90;1.00;;;;;;4953892;29;20414;-81
2023/09/11 03:00:44;;;;;;;68.27;14.80;;;16.10;2.30;;;;;;4955627;28;20432;-81
2023/09/11 03:03:15;;;;;;;69.70;15.53;;;15.90;1.70;;;;;;4949534;29;20461;-81
2023/09/11 03:05:41;;;;;;;76.80;15.20;;;15.90;2.30;;;;;;4944916;29;20515;-80
2023/09/11 03:08:44;;;;;;;67.93;14.60;;;15.90;2.10;;;;;;4956801;28;20521;-79
2023/09/11 03:11:44;;;;;;;65.67;14.33;;;15.90;2.60;;;;;;4954534;28;20172;-79
2023/09/11 03:14:16;;;;;;;65.23;15.20;;;15.90;3.30;;;;;;4955527;29;20424;-79
2023/09/11 03:16:43;;;;;;;67.67;14.60;;;15.90;4.10;;;;;;4959096;29;20493;-79
2023/09/11 03:19:12;;;;;;;74.93;15.50;;;15.90;4.40;;;;;;4955528;29;20986;-79
2023/09/11 03:21:38;;;;;;;71.87;14.27;;;15.80;5.30;;;;;;4959508;29;20387;-80
2023/09/11 03:24:04;;;;;;;71.53;15.23;;;15.80;5.30;;;;;;4959177;28;20893;-79
2023/09/11 03:26:33;;;;;;;74.67;16.40;;;15.80;5.60;;;;;;4959032;28;20185;-79
2023/09/11 03:29:09;;;;;;;66.10;15.83;;;15.80;5.40;;;;;;4947919;29;20394;-79
2023/09/11 03:31:56;;;;;;;72.57;15.20;;;15.80;5.20;;;;;;4958421;28;21033;-79
2023/09/11 03:35:09;;;;;;;63.10;15.00;;;15.70;5.30;;;;;;4946647;29;20432;-79
2023/09/11 03:38:00;;;;;;;68.90;15.30;;;15.70;5.50;;;;;;4949926;29;20797;-79
2023/09/11 03:40:46;;;;;;;71.70;13.93;;;15.70;5.00;;;;;;4955888;29;20924;-79
2023/09/11 03:43:15;;;;;;;72.57;15.00;;;15.70;5.30;;;;;;4959024;28;20374;-79
2023/09/11 03:46:26;;;;;;;70.30;15.40;;;15.70;7.30;;;;;;4958267;28;20442;-79
2023/09/11 03:49:14;;;;;;;71.37;15.00;;;15.70;8.30;;;;;;4946677;29;20512;-79
2023/09/11 03:52:14;;;;;;;69.53;15.43;;;15.60;8.30;;;;;;4955509;28;20462;-79
2023/09/11 03:54:40;;;;;;;76.60;14.90;;;15.60;7.00;;;;;;4958003;29;20401;-79
2023/09/11 03:57:21;;;;;;;62.00;14.17;;;15.60;9.40;;;;;;4958261;29;20423;-79
2023/09/11 03:59:51;;;;;;;69.90;15.63;;;15.60;9.60;;;;;;4957956;29;20192;-79
2023/09/11 04:02:50;;;;;;;66.40;15.80;;;15.60;12.90;;;;;;4956767;28;20819;-79
2023/09/11 04:05:21;;;;;;;70.10;15.40;;;15.60;10.20;;;;;;4958493;29;20437;-79
2023/09/11 04:08:03;;;;;;;69.27;14.80;;;15.60;10.10;;;;;;4945570;29;20905;-82
2023/09/11 04:11:02;;;;;;;63.70;14.80;;;15.60;10.50;;;;;;4955979;29;20785;-81
2023/09/11 04:13:28;;;;;;;75.83;14.33;;;15.60;11.10;;;;;;4949241;29;20489;-81
2023/09/11 04:16:32;;;;;;;68.90;14.93;;;15.50;11.50;;;;;;4955371;29;20394;-81
2023/09/11 04:18:58;;;;;;;65.53;14.40;;;15.60;12.70;;;;;;4956775;28;20200;-82
2023/09/11 04:21:27;;;;;;;64.20;14.23;;;16.00;13.10;;;;;;4958502;29;20382;-80
2023/09/11 04:24:20;;;;;;;69.63;14.20;;;15.50;12.80;;;;;;4941009;29;20284;-80
2023/09/11 04:27:14;;;;;;;74.67;14.70;;;15.50;13.00;;;;;;4956270;29;20409;-79
2023/09/11 04:29:57;;;;;;;65.97;14.00;;;15.50;12.50;;;;;;4950133;29;20920;-79
2023/09/11 04:32:27;;;;;;;64.07;14.17;;;16.00;13.20;;;;;;4958024;29;20480;-79
2023/09/11 04:35:03;;;;;;;69.47;13.97;;;15.70;13.20;;;;;;4957730;29;20807;-79
2023/09/11 04:38:02;;;;;;;76.80;15.00;;;15.50;13.30;;;;;;4957775;29;20486;-81
2023/09/11 04:41:15;;;;;;;59.97;14.40;;;15.50;13.40;;;;;;4949620;29;20431;-83
2023/09/11 04:43:51;;;;;;;64.00;14.90;;;15.50;13.10;;;;;;4948630;29;20453;-82
2023/09/11 04:46:21;;;;;;;64.83;13.73;;;15.50;12.90;;;;;;4956166;28;20923;-81
2023/09/11 04:49:03;;;;;;;64.53;14.47;;;15.40;13.30;;;;;;4955401;29;20431;-81
2023/09/11 04:51:45;;;;;;;59.77;13.60;;;15.40;13.30;;;;;;4970751;28;20483;-81
2023/09/11 04:57:45;;;;;;;69.63;14.30;;;15.40;10.30;;;;;;4954828;29;20408;-82
2023/09/11 05:00:15;;;;;;;65.67;13.70;;;15.40;13.50;;;;;;4955900;28;20402;-82
2023/09/11 05:02:57;;;;;;;67.93;14.30;;;15.40;14.10;;;;;;4957152;28;20410;-81
2023/09/11 05:05:40;;;;;;;61.30;13.83;;;15.40;16.80;;;;;;4957419;29;20406;-81
2023/09/11 05:08:09;;;;;;;62.53;13.47;;;;;;;;;;4950312;28;20453;-81
2023/09/11 05:10:45;;;;;;;69.57;15.10;;;15.30;10.90;;;;;;4957654;28;20435;-82
2023/09/11 05:13:27;;;;;;;69.20;14.37;;;15.40;13.00;;;;;;4951079;29;20459;-82
2023/09/11 05:16:03;;;;;;;71.53;13.97;;;15.40;13.00;;;;;;4954510;29;20416;-82
2023/09/11 05:18:33;;;;;;;61.97;13.93;;;15.40;13.50;;;;;;4943673;29;20882;-82
2023/09/11 05:21:15;;;;;;;77.77;15.10;;;15.50;11.70;;;;;;4954841;29;20500;-82
2023/09/11 05:24:03;;;;;;;59.53;13.70;;;15.40;9.80;;;;;;4968207;28;20840;-82
2023/09/11 05:26:45;;;;;;;67.87;14.10;;;15.40;12.20;;;;;;4966331;28;20406;-82
2023/09/11 05:29:33;;;;;;;68.90;13.87;;;15.50;11.00;;;;;;4956360;29;20416;-82
2023/09/11 05:32:03;;;;;;;68.13;13.60;;;15.50;10.30;;;;;;4956245;28;20546;-82
2023/09/11 05:34:57;;;;;;;66.63;14.53;;;15.60;10.20;;;;;;4955410;29;20433;-82
2023/09/11 05:37:27;;;;;;;59.93;13.93;;;15.60;9.50;;;;;;4948159;29;20501;-82
2023/09/11 05:40:07;;;;;;;60.40;14.13;;;15.60;9.30;;;;;;4947349;29;20407;-82
2023/09/11 05:42:39;;;;;;;67.53;13.50;;;15.60;10.10;;;;;;4947409;29;20406;-81
2023/09/11 05:45:09;;;;;;;72.00;14.60;;;15.70;12.90;;;;;;4955792;28;20410;-83
2023/09/11 05:47:36;;;;;;;61.10;13.77;;;15.70;13.50;;;;;;4954460;29;20443;-82
2023/09/11 05:50:09;;;;;;;63.90;13.87;;;15.80;11.40;;;;;;4944959;28;20962;-82
2023/09/11 05:52:45;;;;;;;72.23;13.43;;;15.80;11.70;;;;;;4955496;28;20555;-81
2023/09/11 05:55:11;;;;;;;70.27;13.57;;;16.00;15.00;;;;;;4947873;29;20436;-83
2023/09/11 05:57:57;;;;;;;63.17;13.53;;;15.90;15.30;;;;;;4952191;29;20427;-82
2023/09/11 06:00:33;;;;;;;64.73;14.70;;;16.00;16.20;;;;;;4957215;28;20200;-81
2023/09/11 06:03:09;;;;;;;72.77;14.33;;;16.00;16.30;;;;;;4950077;29;20584;-81
2023/09/11 06:05:51;;;;;;;59.33;13.70;;;16.10;16.30;;;;;;4948388;29;20441;-81
2023/09/11 06:08:21;;;;;;;70.63;13.73;;;16.20;16.20;;;;;;4954465;28;20404;-81
2023/09/11 06:11:09;;;;;;;73.87;14.93;;;16.20;16.80;;;;;;4949159;29;20892;-81
2023/09/11 06:13:35;;;;;;;62.87;14.17;;;16.30;15.60;;;;;;4943426;29;20432;-80
2023/09/11 06:16:01;;;;;;;61.30;13.83;;;16.40;16.10;;;;;;4953980;29;20416;-81
2023/09/11 06:18:39;;;;;;;59.07;14.03;;;16.50;15.60;;;;;;4955665;28;20777;-81
2023/09/11 06:21:38;;;;;;;63.50;13.00;;;16.50;15.90;;;;;;4951466;29;20422;-81
2023/09/11 06:24:32;;;;;;;64.77;12.97;;;16.60;15.60;;;;;;4955872;28;20431;-81
2023/09/11 06:27:15;;;;;;;66.07;12.90;;;16.70;15.90;;;;;;4952192;29;20433;-86
2023/09/11 06:29:41;;;;;;;64.93;14.27;;;16.80;16.10;;;;;;4975551;28;20494;-86
2023/09/11 06:32:21;;;;;;;68.07;13.40;;;16.90;16.00;;;;;;4951086;28;20477;-85
2023/09/11 06:35:38;;;;;;;69.07;14.23;;;17.00;15.60;;;;;;4948154;29;20205;-86
2023/09/11 06:41:33;;;;;;;72.30;13.50;;;17.20;16.20;;;;;;4952514;28;20433;-86
2023/09/11 06:44:09;;;;;;;75.40;13.37;;;17.30;17.30;;;;;;4939608;29;20396;-86
2023/09/11 06:50:09;;;;;;;70.20;13.90;;;17.60;18.00;;;;;;4940797;28;20487;-85
2023/09/11 06:52:40;;;;;;;69.20;13.53;;;17.80;17.50;;;;;;4964584;28;20976;-86
2023/09/11 06:55:09;;;;;;;59.70;12.50;;;17.90;15.80;;;;;;4954489;29;20521;-81
2023/09/11 06:58:08;;;;;;;83.07;13.47;;;18.10;15.70;;;;;;4939431;29;20394;-81
2023/09/11 07:00:51;;;;;;;61.20;13.30;;;18.20;15.80;;;;;;4947115;28;20438;-81
2023/09/11 07:03:21;;;;;;;67.37;13.53;;;18.40;12.90;;;;;;4947899;29;20472;-81
2023/09/11 07:06:03;;;;;;;74.43;13.17;;;18.50;14.90;;;;;;4931858;29;20445;-82
2023/09/11 07:08:29;;;;;;;63.70;13.60;;;18.70;12.10;;;;;;4945022;29;21109;-81
2023/09/11 07:11:03;;;;;;;61.17;11.70;;;18.80;2.70;;;;;;4932845;28;20414;-81
2023/09/11 07:13:29;;;;;;;63.23;11.27;;;18.90;2.90;;;;;;4935776;29;20571;-81
2023/09/11 07:16:21;;;;;;;62.23;11.30;;;19.00;1.00;;;;;;4934958;29;20431;-81
2023/09/11 07:19:22;;;;;;;69.93;11.33;;;19.10;1.00;;;;;;4933869;29;20196;-81
2023/09/11 07:21:51;;;;;;;67.37;11.10;;;19.30;1.00;;;;;;4928667;29;20429;-81
2023/09/11 07:24:39;;;;;;;57.80;10.83;;;19.40;1.00;;;;;;4932582;29;20516;-81
2023/09/11 07:27:15;;;;;;;57.70;11.27;;;19.60;1.00;;;;;;4928436;29;20445;-86
2023/09/11 07:30:32;;;;;;;63.33;10.00;;;20.00;1.00;;;;;;4924310;29;20387;-86
2023/09/11 07:33:11;;;;;;;57.50;10.73;;;19.80;1.00;;;;;;4933565;29;20431;-86
2023/09/11 07:35:39;;;;;;;66.00;10.40;;;20.00;1.00;;;;;;4936184;29;20440;-87
2023/09/11 07:41:33;;;;;;;63.17;10.10;;;20.20;1.00;;;;;;4947620;29;20430;-82
2023/09/11 07:43:59;;;;;;;63.17;9.70;;;20.40;1.00;;;;;;4950743;29;20421;-81
2023/09/11 07:46:25;;;;;;;61.90;9.50;;;20.50;1.00;;;;;;4951310;29;20925;-81
2023/09/11 07:48:51;;;;;;;55.23;9.43;;;20.70;1.00;;;;;;4934811;29;20409;-81
2023/09/11 07:51:33;;;;;;;58.73;10.93;;;20.80;1.00;;;;;;4936657;29;20201;-81
2023/09/11 07:54:09;;;;;;;59.37;10.40;;;;;;;;;;4936187;29;20442;-81
2023/09/11 07:56:39;;;;;;;57.23;9.53;;;21.00;1.00;;;;;;4941046;29;20433;-87
2023/09/11 07:59:09;;;;;;;55.03;9.00;;;21.20;1.00;;;;;;4941374;29;20431;-87
2023/09/11 08:02:02;;;;;;;56.87;10.20;;;21.20;1.00;;;;;;4943886;29;20437;-87
2023/09/11 08:04:27;;;;;;;54.90;9.60;;;21.30;1.00;;;;;;4936090;29;20470;-87
2023/09/11 08:07:09;;;;;;;59.50;9.50;;;21.50;1.00;;;;;;4939191;29;20979;-87
2023/09/11 08:12:57;;;;;;;54.80;8.70;;;21.70;1.00;;;;;;4938910;29;20518;-87
2023/09/11 08:16:08;;;;;;;47.57;8.20;;;21.80;1.00;;;;;;4943051;29;20434;-87
2023/09/11 08:18:57;;;;;;;55.13;8.70;;;22.00;1.00;;;;;;4944443;29;20447;-89
2023/09/11 08:22:08;;;;;;;53.70;8.40;;;22.10;1.00;;;;;;4925993;29;20436;-87
2023/09/11 08:24:35;;;;;;;48.43;8.17;;;;;;;;;;4931653;28;21080;-86
2023/09/11 08:27:04;;;;;;;52.97;8.60;;;22.30;1.00;;;;;;4941286;29;20432;-81
2023/09/11 08:29:29;;;;;;;47.13;8.13;;;22.40;1.00;;;;;;4930466;29;20532;-81
2023/09/11 08:32:06;;;;;;;49.07;8.17;;;22.50;1.00;;;;;;4932591;29;20532;-81
2023/09/11 08:34:33;;;;;;;48.33;8.30;;;22.60;1.00;;;;;;4938365;29;20180;-82
2023/09/11 08:36:59;;;;;;;48.50;8.60;;;22.70;1.00;;;;;;4932473;29;20802;-83
2023/09/11 08:39:27;;;;;;;55.63;8.97;;;22.70;1.00;;;;;;4934750;29;20487;-82
2023/09/11 08:42:38;;;;;;;48.57;8.43;;;22.90;1.00;;;;;;4946980;29;20390;-87
2023/09/11 08:45:09;;;;;;;48.13;7.93;;;23.10;1.00;;;;;;4949070;29;20434;-88
2023/09/11 08:48:10;;;;;;;50.87;8.67;;;23.20;1.00;;;;;;4943390;29;20488;-88
2023/09/11 08:51:11;;;;;;;52.50;8.20;;;23.40;1.00;;;;;;4929762;29;21224;-88
2023/09/11 08:54:26;;;;;;;48.77;8.33;;;23.50;1.00;;;;;;4931394;29;20608;-88
2023/09/11 08:56:58;;;;;;;55.40;7.87;;;23.50;1.00;;;;;;4933922;29;20493;-81
2023/09/11 08:59:37;;;;;;;49.40;8.30;;;23.50;1.00;;;;;;4947974;29;20434;-81
2023/09/11 09:02:16;;;;;;;47.87;7.20;;;23.70;1.00;;;;;;4929601;29;20443;-82
2023/09/11 09:04:57;;;;;;;51.07;7.77;;;23.90;1.00;;;;;;4936723;29;20433;-82
2023/09/11 09:07:28;;;;;;;53.10;9.23;;;24.00;1.00;;;;;;4934989;29;20395;-82
2023/09/11 09:09:55;;;;;;;49.40;7.93;;;24.10;1.00;;;;;;4946546;29;20422;-82
2023/09/11 09:12:40;;;;;;;45.87;7.10;;;24.20;1.00;;;;;;4939768;29;20489;-88
2023/09/11 09:15:09;;;;;;;50.13;8.57;;;24.30;1.00;;;;;;4934221;29;20436;-89
2023/09/11 09:17:35;;;;;;;47.53;6.87;;;24.50;1.00;;;;;;4925920;29;20452;-89
2023/09/11 09:20:10;;;;;;;50.33;7.67;;;24.50;1.00;;;;;;4936138;29;20449;-89
2023/09/11 09:22:53;;;;;;;53.03;8.50;;;24.50;1.00;;;;;;4937035;29;20671;-89
2023/09/11 09:29:10;;;;;;;47.07;8.40;;;24.80;1.00;;;;;;4938431;29;20519;-89
2023/09/11 09:31:39;;;;;;;56.77;7.80;;;24.70;1.00;;;;;;4940873;29;20502;-89
2023/09/11 09:34:09;;;;;;;50.70;7.87;;;24.80;1.00;;;;;;4936264;29;20436;-89
2023/09/11 09:36:57;;;;;;;45.30;7.73;;;25.00;1.00;;;;;;4938663;29;20442;-89
2023/09/11 09:40:08;;;;;;;50.73;7.87;;;25.10;1.00;;;;;;4942111;29;20436;-89
2023/09/11 09:42:43;;;;;;;45.90;8.00;;;25.30;1.00;;;;;;4933147;29;20441;-82
2023/09/11 09:45:27;;;;;;;51.83;8.47;;;25.40;1.00;;;;;;4938649;29;20435;-83
2023/09/11 09:48:18;;;;;;;50.37;8.27;;;25.60;1.00;;;;;;4933466;29;20469;-82
2023/09/11 09:50:53;;;;;;;52.37;8.50;;;25.70;1.00;;;;;;4941565;29;20438;-82
2023/09/11 09:53:44;;;;;;;48.70;8.77;;;25.80;1.00;;;;;;4933618;29;20554;-82
2023/09/11 09:56:18;;;;;;;53.93;7.80;;;25.80;1.00;;;;;;4928976;29;20490;-82
2023/09/11 10:02:11;;;;;;;54.23;9.03;;;26.00;1.00;;;;;;4947619;29;20447;-89
2023/09/11 10:04:53;;;;;;;46.27;8.20;;;26.20;1.00;;;;;;4937108;29;20440;-90
2023/09/11 10:07:50;;;;;;;44.57;8.00;;;26.30;1.00;;;;;;4934802;29;20442;-90
2023/09/11 10:10:51;;;;;;;56.20;8.37;;;26.60;1.00;;;;;;4885489;29;21275;-90
2023/09/11 10:16:40;;;;;;;64.63;9.10;;;26.60;1.00;;;;;;4885369;29;20996;-91
2023/09/11 10:19:11;;;;;;;49.33;8.00;;;26.70;1.00;;;;;;4898214;29;20469;-90
2023/09/11 10:21:39;;;;;;;53.10;7.90;;;26.70;1.00;;;;;;4902481;29;20900;-91
2023/09/11 10:24:11;;;;;;;55.80;9.30;;;26.70;1.00;;;;;;4901312;29;20569;-91
2023/09/11 10:27:01;;;;;;;50.20;8.40;;;27.00;1.00;;;;;;4901746;29;20465;-84
2023/09/11 10:29:34;;;;;;;45.40;8.27;;;27.00;1.00;;;;;;4899630;29;20463;-81
2023/09/11 10:32:35;;;;;;;46.30;8.20;;;27.00;1.00;;;;;;4881670;29;20473;-82
2023/09/11 10:35:10;;;;;;;47.30;8.10;;;27.20;1.00;;;;;;4860339;29;21043;-81
2023/09/11 10:37:56;;;;;;;51.73;8.00;;;27.20;1.00;;;;;;4858379;29;20440;-82
2023/09/11 10:40:31;;;;;;;52.63;8.90;;;27.30;1.00;;;;;;4848165;29;20447;-81
2023/09/11 10:43:38;;;;;;;54.60;8.47;;;27.10;1.00;;;;;;4864336;29;20494;-83
2023/09/11 10:46:21;;;;;;;51.13;7.90;;;27.10;1.00;;;;;;4845958;29;20447;-83
2023/09/11 10:48:52;;;;;;;47.77;7.53;;;27.30;1.00;;;;;;4880945;29;20438;-79
2023/09/11 10:51:18;;;;;;;58.10;8.00;;;27.40;1.00;;;;;;4907757;29;20440;-79
2023/09/11 10:53:47;;;;;;;54.50;7.47;;;27.50;1.00;;;;;;4894022;29;20466;-77
2023/09/11 10:56:16;;;;;;;57.07;7.50;;;27.60;1.00;;;;;;4896628;29;20944;-81
2023/09/11 10:58:45;;;;;;;55.80;7.97;;;27.70;1.00;;;;;;4908402;29;20434;-80
2023/09/11 11:01:16;;;;;;;59.17;8.40;;;28.00;1.00;;;;;;4887258;29;20472;-82
2023/09/11 11:03:45;;;;;;;58.13;8.17;;;28.00;1.00;;;;;;4904153;29;20480;-81
2023/09/11 11:06:16;;;;;;;54.83;7.40;;;28.20;1.00;;;;;;4897152;29;20447;-81
2023/09/11 11:08:46;;;;;;;60.77;7.63;;;28.30;1.00;;;;;;4893970;29;20448;-81
2023/09/11 11:11:29;;;;;;;53.57;7.60;;;28.50;1.00;;;;;;4908721;29;20529;-82
2023/09/11 11:14:18;;;;;;;55.33;8.07;;;28.50;1.00;;;;;;4924449;29;20992;-81
2023/09/11 11:17:10;;;;;;;59.23;7.73;;;28.60;1.00;;;;;;4931884;29;20478;-81
2023/09/11 11:19:46;;;;;;;46.20;7.00;;;28.80;1.00;;;;;;4935236;29;20448;-82
2023/09/11 11:22:39;;;;;;;55.97;7.63;;;28.80;1.00;;;;;;4934329;29;20478;-83
2023/09/11 11:25:08;;;;;;;56.87;6.73;;;29.00;1.00;;;;;;4931165;29;20514;-82
2023/09/11 11:27:41;;;;;;;54.17;8.37;;;29.00;1.00;;;;;;4934508;29;20415;-81
2023/09/11 11:30:09;;;;;;;57.17;8.03;;;28.90;1.00;;;;;;4934725;29;20518;-83
2023/09/11 11:32:40;;;;;;;54.70;7.93;;;29.00;1.00;;;;;;4939711;29;20470;-86
2023/09/11 11:35:22;;;;;;;56.37;8.53;;;29.10;1.00;;;;;;4937569;29;20435;-85
2023/09/11 11:37:53;;;;;;;51.70;7.03;;;29.40;1.00;;;;;;4934372;29;20446;-84
2023/09/11 11:40:39;;;;;;;54.20;7.70;;;29.40;1.00;;;;;;4938647;29;20443;-85
2023/09/11 11:43:04;;;;;;;47.07;6.50;;;29.40;1.00;;;;;;4938740;29;20434;-82
2023/09/11 11:45:44;;;;;;;53.20;6.20;;;29.50;1.00;;;;;;4939512;29;20415;-81
2023/09/11 11:48:41;;;;;;;54.40;6.47;;;29.60;1.00;;;;;;4940165;29;20257;-80
2023/09/11 11:51:09;;;;;;;58.07;6.30;;;29.80;1.00;;;;;;4945722;29;20566;-81
2023/09/11 11:53:39;;;;;;;60.83;7.37;;;29.80;1.00;;;;;;4944290;28;20978;-82
2023/09/11 11:56:09;;;;;;;64.77;6.80;;;29.90;1.00;;;;;;4937148;29;20443;-82
2023/09/11 11:58:39;;;;;;;62.47;6.47;;;30.00;1.00;;;;;;4931205;29;20432;-82
2023/09/11 12:01:09;;;;;;;59.30;6.70;;;30.10;1.00;;;;;;4944622;29;20521;-81
2023/09/11 12:03:54;;;;;;;53.27;7.57;;;30.10;1.00;;;;;;4942059;29;20790;-82
2023/09/11 12:06:54;;;;;;;50.87;6.43;;;30.20;1.00;;;;;;4929008;29;20424;-80
2023/09/11 12:09:39;;;;;;;55.57;7.20;;;30.20;1.00;;;;;;4931057;29;20463;-83
2023/09/11 12:12:09;;;;;;;60.83;7.23;;;30.30;1.00;;;;;;4938402;29;20463;-82
2023/09/11 12:14:56;;;;;;;55.63;6.50;;;30.30;1.00;;;;;;4939611;29;20444;-85
2023/09/11 12:17:21;;;;;;;54.70;7.60;;;30.30;1.00;;;;;;4926064;29;20971;-86
2023/09/11 12:20:08;;;;;;;54.53;6.80;;;30.40;1.00;;;;;;4938394;29;20519;-85
2023/09/11 12:22:42;;;;;;;52.83;6.53;;;30.50;1.00;;;;;;4938477;28;20272;-83
2023/09/11 12:25:21;;;;;;;55.67;7.23;;;30.70;1.00;;;;;;4940405;29;20482;-82
2023/09/11 12:27:51;;;;;;;53.37;7.30;;;30.80;1.00;;;;;;4930747;29;20431;-83
2023/09/11 12:30:21;;;;;;;56.77;6.77;;;30.80;1.00;;;;;;4938565;29;20463;-86
2023/09/11 12:33:37;;;;;;;59.20;6.60;;;30.70;1.00;;;;;;4936176;29;20499;-83
2023/09/11 12:36:27;;;;;;;52.20;6.20;;;30.70;1.00;;;;;;4936841;29;21017;-84
2023/09/11 12:39:21;;;;;;;52.93;6.77;;;30.80;1.00;;;;;;4933496;29;20427;-85
2023/09/11 12:41:51;;;;;;;49.57;6.23;;;30.70;1.00;;;;;;4943656;29;20518;-83
2023/09/11 12:44:27;;;;;;;67.80;6.67;;;30.80;1.00;;;;;;4931162;29;20411;-84
2023/09/11 12:47:33;;;;;;;56.30;6.03;;;31.00;1.00;;;;;;4948780;29;20447;-84
2023/09/11 12:50:21;;;;;;;56.33;5.90;;;31.00;1.00;;;;;;4943065;29;20412;-87
2023/09/11 12:53:21;;;;;;;60.33;5.40;;;31.00;1.00;;;;;;4946935;29;20529;-84
2023/09/11 12:56:21;;;;;;;55.83;6.13;;;31.00;1.00;;;;;;4948433;29;20580;-85
2023/09/11 13:02:21;;;;;;;55.00;5.57;;;31.20;1.00;;;;;;4955763;29;20410;-83
2023/09/11 13:04:53;;;;;;;49.50;5.33;;;31.20;1.00;;;;;;4928525;29;20427;-83
2023/09/11 13:07:21;;;;;;;54.40;5.90;;;31.10;1.00;;;;;;4936646;29;20443;-83
2023/09/11 13:09:51;;;;;;;56.93;6.50;;;31.00;1.00;;;;;;4940943;29;20502;-84
2023/09/11 13:13:03;;;;;;;55.70;5.93;;;31.00;1.00;;;;;;4935842;29;20602;-83
2023/09/11 13:15:39;;;;;;;49.50;5.40;;;31.20;1.00;;;;;;4934912;29;20447;-84
2023/09/11 13:18:05;;;;;;;57.83;5.70;;;31.20;1.00;;;;;;4944216;29;20454;-85
2023/09/11 13:20:56;;;;;;;51.43;5.13;;;31.20;1.00;;;;;;4937982;29;20553;-85
2023/09/11 13:23:51;;;;;;;49.13;6.97;;;31.00;1.00;;;;;;4927285;29;20550;-85
2023/09/11 13:26:21;;;;;;;59.90;5.40;;;31.20;1.00;;;;;;4919063;29;20456;-85
2023/09/11 13:28:51;;;;;;;50.43;5.20;;;31.30;1.00;;;;;;4921286;29;20428;-84
2023/09/11 13:31:21;;;;;;;58.40;5.80;;;31.40;1.00;;;;;;4931198;29;20916;-82
2023/09/11 13:33:51;;;;;;;59.43;5.97;;;31.50;1.00;;;;;;4937126;29;20514;-87
2023/09/11 13:36:21;;;;;;;53.90;5.07;;;31.60;1.00;;;;;;4936646;29;20443;-86
2023/09/11 13:38:57;;;;;;;59.00;5.47;;;31.70;1.00;;;;;;4931778;29;20502;-88
2023/09/11 13:41:45;;;;;;;55.10;5.67;;;31.50;1.00;;;;;;4922753;29;20918;-86
2023/09/11 13:44:21;;;;;;;52.57;5.10;;;31.50;1.00;;;;;;4940015;29;21017;-85
2023/09/11 13:46:58;;;;;;;55.50;4.53;;;31.70;1.00;;;;;;4928092;29;20946;-86
2023/09/11 13:49:27;;;;;;;45.83;4.60;;;31.80;1.00;;;;;;4937813;29;20435;-86
2023/09/11 13:52:03;;;;;;;48.20;4.57;;;31.90;1.00;;;;;;4937881;29;20479;-87
2023/09/11 13:54:29;;;;;;;47.10;5.00;;;31.80;1.00;;;;;;4931306;29;20431;-85
2023/09/11 13:57:21;;;;;;;46.83;5.13;;;31.80;1.00;;;;;;4929773;29;20431;-84
2023/09/11 13:59:51;;;;;;;52.03;5.33;;;31.90;1.00;;;;;;4938196;29;20188;-86
2023/09/11 14:02:51;;;;;;;53.43;5.10;;;31.90;1.00;;;;;;4925586;29;20432;-86
2023/09/11 14:05:21;;;;;;;60.33;4.83;;;32.00;1.00;;;;;;4934319;29;20482;-87
2023/09/11 14:07:51;;;;;;;46.80;4.77;;;32.00;1.00;;;;;;4947741;29;20473;-87
2023/09/11 14:10:21;;;;;;;54.43;5.00;;;31.90;1.00;;;;;;4953116;29;20815;-87
2023/09/11 14:12:53;;;;;;;53.30;4.97;;;32.00;1.00;;;;;;4924367;29;20488;-86
2023/09/11 14:15:27;;;;;;;54.40;5.30;;;32.00;1.00;;;;;;4943534;29;20443;-86
2023/09/11 14:18:33;;;;;;;47.57;4.50;;;32.10;1.00;;;;;;4928337;29;20514;-89
2023/09/11 14:21:21;;;;;;;50.90;4.83;;;32.10;1.00;;;;;;4935773;29;20510;-94
2023/09/11 14:23:51;;;;;;;58.07;5.00;;;32.10;1.00;;;;;;4936439;29;20528;-89
2023/09/11 14:26:22;;;;;;;54.33;5.70;;;32.20;1.00;;;;;;4936840;29;20523;-85